sensor_id;sensor_type;location;lat;lon;timestamp;temperature;humidity
16102;DHT22;56411;52.964;10.540;2023-04-24T00:01:07;12.50;99.90
16102;DHT22;56411;52.964;10.540;2023-04-24T00:03:34;12.50;99.90
16102;DHT22;56411;52.964;10.540;2023-04-24T00:06:02;12.50;99.90
16102;DHT22;56411;52.964;10.540;2023-04-24T00:08:30;12.50;99.90
16102;DHT22;56411;52.964;10.540;2023-04-24T00:10:57;12.50;99.90
16102;DHT22;56411;52.964;10.540;2023-04-24T00:13:25;12.50;99.90
16102;DHT22;56411;52.964;10.540;2023-04-24T00:15:53;12.50;99.90
16102;DHT22;56411;52.964;10.540;2023-04-24T00:18:22;12.50;99.90
16102;DHT22;56411;52.964;10.540;2023-04-24T00:20:49;12.40;99.90
16102;DHT22;56411;52.964;10.540;2023-04-24T00:23:16;12.40;99.90
16102;DHT22;56411;52.964;10.540;2023-04-24T00:25:43;12.30;99.90
16102;DHT22;56411;52.964;10.540;2023-04-24T00:28:11;12.30;99.90
16102;DHT22;56411;52.964;10.540;2023-04-24T00:30:38;12.30;99.90
16102;DHT22;56411;52.964;10.540;2023-04-24T00:33:05;12.30;99.90
16102;DHT22;56411;52.964;10.540;2023-04-24T00:35:33;12.30;99.90
16102;DHT22;56411;52.964;10.540;2023-04-24T00:38:00;12.20;99.90
16102;DHT22;56411;52.964;10.540;2023-04-24T00:40:28;12.20;99.90
16102;DHT22;56411;52.964;10.540;2023-04-24T00:42:55;12.20;99.90
16102;DHT22;56411;52.964;10.540;2023-04-24T00:45:23;12.20;99.90
16102;DHT22;56411;52.964;10.540;2023-04-24T00:47:52;12.10;99.90
16102;DHT22;56411;52.964;10.540;2023-04-24T00:50:21;12.10;99.90
16102;DHT22;56411;52.964;10.540;2023-04-24T00:52:49;12.10;99.90
16102;DHT22;56411;52.964;10.540;2023-04-24T00:55:17;12.10;99.90
16102;DHT22;56411;52.964;10.540;2023-04-24T00:57:45;12.20;99.90
16102;DHT22;56411;52.964;10.540;2023-04-24T01:00:13;12.20;99.90
16102;DHT22;56411;52.964;10.540;2023-04-24T01:02:43;12.20;99.90
16102;DHT22;56411;52.964;10.540;2023-04-24T01:05:11;12.10;99.90
16102;DHT22;56411;52.964;10.540;2023-04-24T01:07:39;12.10;99.90
16102;DHT22;56411;52.964;10.540;2023-04-24T01:10:11;12.10;99.90
16102;DHT22;56411;52.964;10.540;2023-04-24T01:12:39;12.00;99.90
16102;DHT22;56411;52.964;10.540;2023-04-24T01:15:08;11.90;99.90
16102;DHT22;56411;52.964;10.540;2023-04-24T01:17:35;11.80;99.90
16102;DHT22;56411;52.964;10.540;2023-04-24T01:20:04;11.70;99.90
16102;DHT22;56411;52.964;10.540;2023-04-24T01:22:34;11.60;99.90
16102;DHT22;56411;52.964;10.540;2023-04-24T01:25:02;11.50;99.90
16102;DHT22;56411;52.964;10.540;2023-04-24T01:27:29;11.40;99.90
16102;DHT22;56411;52.964;10.540;2023-04-24T01:29:57;11.30;99.90
16102;DHT22;56411;52.964;10.540;2023-04-24T01:32:24;11.10;99.90
16102;DHT22;56411;52.964;10.540;2023-04-24T01:34:52;11.00;99.90
16102;DHT22;56411;52.964;10.540;2023-04-24T01:37:19;11.00;99.90
16102;DHT22;56411;52.964;10.540;2023-04-24T01:39:47;10.80;99.90
16102;DHT22;56411;52.964;10.540;2023-04-24T01:42:15;10.80;99.90
16102;DHT22;56411;52.964;10.540;2023-04-24T01:44:42;10.70;99.90
16102;DHT22;56411;52.964;10.540;2023-04-24T01:47:10;10.60;99.90
16102;DHT22;56411;52.964;10.540;2023-04-24T01:49:41;10.50;99.90
16102;DHT22;56411;52.964;10.540;2023-04-24T01:52:08;10.40;99.90
16102;DHT22;56411;52.964;10.540;2023-04-24T01:54:35;10.40;99.90
16102;DHT22;56411;52.964;10.540;2023-04-24T01:57:04;10.40;99.90
16102;DHT22;56411;52.964;10.540;2023-04-24T01:59:33;10.40;99.90
16102;DHT22;56411;52.964;10.540;2023-04-24T02:02:02;10.30;99.90
16102;DHT22;56411;52.964;10.540;2023-04-24T02:04:29;10.20;99.90
16102;DHT22;56411;52.964;10.540;2023-04-24T02:06:56;10.10;99.90
16102;DHT22;56411;52.964;10.540;2023-04-24T02:09:23;10.10;99.90
16102;DHT22;56411;52.964;10.540;2023-04-24T02:11:50;10.00;99.90
16102;DHT22;56411;52.964;10.540;2023-04-24T02:14:19;10.00;99.90
16102;DHT22;56411;52.964;10.540;2023-04-24T02:16:46;9.90;99.90
16102;DHT22;56411;52.964;10.540;2023-04-24T02:19:13;10.00;99.90
16102;DHT22;56411;52.964;10.540;2023-04-24T02:21:40;10.10;99.90
16102;DHT22;56411;52.964;10.540;2023-04-24T02:24:07;10.20;99.90
16102;DHT22;56411;52.964;10.540;2023-04-24T02:26:34;10.20;99.90
16102;DHT22;56411;52.964;10.540;2023-04-24T02:29:01;10.30;99.90
16102;DHT22;56411;52.964;10.540;2023-04-24T02:31:30;10.40;99.90
16102;DHT22;56411;52.964;10.540;2023-04-24T02:33:57;10.40;99.90
16102;DHT22;56411;52.964;10.540;2023-04-24T02:36:24;10.30;99.90
16102;DHT22;56411;52.964;10.540;2023-04-24T02:38:51;10.30;99.90
16102;DHT22;56411;52.964;10.540;2023-04-24T02:41:18;10.40;99.90
16102;DHT22;56411;52.964;10.540;2023-04-24T02:43:46;10.40;99.90
16102;DHT22;56411;52.964;10.540;2023-04-24T02:46:13;10.40;99.90
16102;DHT22;56411;52.964;10.540;2023-04-24T02:48:41;10.30;99.90
16102;DHT22;56411;52.964;10.540;2023-04-24T02:51:08;10.40;99.90
16102;DHT22;56411;52.964;10.540;2023-04-24T02:53:35;10.30;99.90
16102;DHT22;56411;52.964;10.540;2023-04-24T02:56:02;10.30;99.90
16102;DHT22;56411;52.964;10.540;2023-04-24T02:58:30;10.30;99.90
16102;DHT22;56411;52.964;10.540;2023-04-24T03:00:57;10.30;99.90
16102;DHT22;56411;52.964;10.540;2023-04-24T03:03:24;10.20;99.90
16102;DHT22;56411;52.964;10.540;2023-04-24T03:05:52;10.10;99.90
16102;DHT22;56411;52.964;10.540;2023-04-24T03:08:21;10.00;99.90
16102;DHT22;56411;52.964;10.540;2023-04-24T03:10:47;9.90;99.90
16102;DHT22;56411;52.964;10.540;2023-04-24T03:13:15;9.80;99.90
16102;DHT22;56411;52.964;10.540;2023-04-24T03:15:43;9.70;99.90
16102;DHT22;56411;52.964;10.540;2023-04-24T03:18:10;9.80;99.90
16102;DHT22;56411;52.964;10.540;2023-04-24T03:20:37;9.70;99.90
16102;DHT22;56411;52.964;10.540;2023-04-24T03:23:06;9.60;99.90
16102;DHT22;56411;52.964;10.540;2023-04-24T03:25:33;9.50;99.90
16102;DHT22;56411;52.964;10.540;2023-04-24T03:28:00;9.40;99.90
16102;DHT22;56411;52.964;10.540;2023-04-24T03:30:28;9.30;99.90
16102;DHT22;56411;52.964;10.540;2023-04-24T03:32:55;9.20;99.90
16102;DHT22;56411;52.964;10.540;2023-04-24T03:35:22;9.10;99.90
16102;DHT22;56411;52.964;10.540;2023-04-24T03:37:49;9.00;99.90
16102;DHT22;56411;52.964;10.540;2023-04-24T03:40:18;9.00;99.90
16102;DHT22;56411;52.964;10.540;2023-04-24T03:42:45;8.80;99.90
16102;DHT22;56411;52.964;10.540;2023-04-24T03:45:12;8.90;99.90
16102;DHT22;56411;52.964;10.540;2023-04-24T03:47:39;8.80;99.90
16102;DHT22;56411;52.964;10.540;2023-04-24T03:50:07;8.80;99.90
16102;DHT22;56411;52.964;10.540;2023-04-24T03:52:34;8.70;99.90
16102;DHT22;56411;52.964;10.540;2023-04-24T03:55:01;8.60;99.90
16102;DHT22;56411;52.964;10.540;2023-04-24T03:57:30;8.50;99.90
16102;DHT22;56411;52.964;10.540;2023-04-24T03:59:57;8.50;99.90
16102;DHT22;56411;52.964;10.540;2023-04-24T04:02:24;8.50;99.90
16102;DHT22;56411;52.964;10.540;2023-04-24T04:04:51;8.50;99.90
16102;DHT22;56411;52.964;10.540;2023-04-24T04:07:18;8.60;99.90
16102;DHT22;56411;52.964;10.540;2023-04-24T04:09:45;8.50;99.90
16102;DHT22;56411;52.964;10.540;2023-04-24T04:12:12;8.40;99.90
16102;DHT22;56411;52.964;10.540;2023-04-24T04:14:41;8.40;99.90
16102;DHT22;56411;52.964;10.540;2023-04-24T04:17:08;8.30;99.90
16102;DHT22;56411;52.964;10.540;2023-04-24T04:19:35;8.30;99.90
16102;DHT22;56411;52.964;10.540;2023-04-24T04:22:03;8.30;99.90
16102;DHT22;56411;52.964;10.540;2023-04-24T04:24:30;8.30;99.90
16102;DHT22;56411;52.964;10.540;2023-04-24T04:26:56;8.40;99.90
16102;DHT22;56411;52.964;10.540;2023-04-24T04:29:24;8.30;99.90
16102;DHT22;56411;52.964;10.540;2023-04-24T04:31:52;8.20;99.90
16102;DHT22;56411;52.964;10.540;2023-04-24T04:34:20;8.10;99.90
16102;DHT22;56411;52.964;10.540;2023-04-24T04:36:48;8.00;99.90
16102;DHT22;56411;52.964;10.540;2023-04-24T04:39:16;7.90;99.90
16102;DHT22;56411;52.964;10.540;2023-04-24T04:41:44;7.90;99.90
16102;DHT22;56411;52.964;10.540;2023-04-24T04:44:12;8.00;99.90
16102;DHT22;56411;52.964;10.540;2023-04-24T04:46:40;8.20;99.90
16102;DHT22;56411;52.964;10.540;2023-04-24T04:49:11;8.20;99.90
16102;DHT22;56411;52.964;10.540;2023-04-24T04:51:38;8.30;99.90
16102;DHT22;56411;52.964;10.540;2023-04-24T04:54:05;8.40;99.90
16102;DHT22;56411;52.964;10.540;2023-04-24T04:56:33;8.40;99.90
16102;DHT22;56411;52.964;10.540;2023-04-24T04:59:00;8.50;99.90
16102;DHT22;56411;52.964;10.540;2023-04-24T05:01:27;8.60;99.90
16102;DHT22;56411;52.964;10.540;2023-04-24T05:03:54;8.70;99.90
16102;DHT22;56411;52.964;10.540;2023-04-24T05:06:22;8.80;99.90
16102;DHT22;56411;52.964;10.540;2023-04-24T05:08:49;8.70;99.90
16102;DHT22;56411;52.964;10.540;2023-04-24T05:11:16;8.80;99.90
16102;DHT22;56411;52.964;10.540;2023-04-24T05:13:44;8.80;99.90
16102;DHT22;56411;52.964;10.540;2023-04-24T05:16:10;8.80;99.90
16102;DHT22;56411;52.964;10.540;2023-04-24T05:18:37;8.80;99.90
16102;DHT22;56411;52.964;10.540;2023-04-24T05:21:04;8.80;99.90
16102;DHT22;56411;52.964;10.540;2023-04-24T05:23:33;8.80;99.90
16102;DHT22;56411;52.964;10.540;2023-04-24T05:26:00;8.80;99.90
16102;DHT22;56411;52.964;10.540;2023-04-24T05:28:27;8.80;99.90
16102;DHT22;56411;52.964;10.540;2023-04-24T05:30:55;8.90;99.90
16102;DHT22;56411;52.964;10.540;2023-04-24T05:33:22;8.90;99.90
16102;DHT22;56411;52.964;10.540;2023-04-24T05:35:49;8.90;99.90
16102;DHT22;56411;52.964;10.540;2023-04-24T05:38:16;8.90;99.90
16102;DHT22;56411;52.964;10.540;2023-04-24T05:40:46;8.90;99.90
16102;DHT22;56411;52.964;10.540;2023-04-24T05:43:13;8.90;99.90
16102;DHT22;56411;52.964;10.540;2023-04-24T05:45:40;9.00;99.90
16102;DHT22;56411;52.964;10.540;2023-04-24T05:48:07;9.00;99.90
16102;DHT22;56411;52.964;10.540;2023-04-24T05:50:34;9.10;99.90
16102;DHT22;56411;52.964;10.540;2023-04-24T05:53:04;9.20;99.90
16102;DHT22;56411;52.964;10.540;2023-04-24T05:55:32;9.20;99.90
16102;DHT22;56411;52.964;10.540;2023-04-24T05:58:01;9.30;99.90
16102;DHT22;56411;52.964;10.540;2023-04-24T06:00:28;9.30;99.90
16102;DHT22;56411;52.964;10.540;2023-04-24T06:02:55;9.30;99.90
16102;DHT22;56411;52.964;10.540;2023-04-24T06:05:22;9.40;99.90
16102;DHT22;56411;52.964;10.540;2023-04-24T06:07:49;9.50;99.90
16102;DHT22;56411;52.964;10.540;2023-04-24T06:10:16;9.70;99.90
16102;DHT22;56411;52.964;10.540;2023-04-24T06:12:43;9.80;99.90
16102;DHT22;56411;52.964;10.540;2023-04-24T06:15:12;9.90;99.90
16102;DHT22;56411;52.964;10.540;2023-04-24T06:17:39;10.00;99.90
16102;DHT22;56411;52.964;10.540;2023-04-24T06:20:07;10.10;99.90
16102;DHT22;56411;52.964;10.540;2023-04-24T06:22:34;10.20;99.90
16102;DHT22;56411;52.964;10.540;2023-04-24T06:25:02;10.20;99.90
16102;DHT22;56411;52.964;10.540;2023-04-24T06:27:30;10.20;99.90
16102;DHT22;56411;52.964;10.540;2023-04-24T06:29:57;10.30;99.90
16102;DHT22;56411;52.964;10.540;2023-04-24T06:32:25;10.30;99.90
16102;DHT22;56411;52.964;10.540;2023-04-24T06:34:52;10.40;99.90
16102;DHT22;56411;52.964;10.540;2023-04-24T06:37:20;10.60;99.90
16102;DHT22;56411;52.964;10.540;2023-04-24T06:39:47;10.70;99.90
16102;DHT22;56411;52.964;10.540;2023-04-24T06:42:14;11.00;99.90
16102;DHT22;56411;52.964;10.540;2023-04-24T06:44:41;11.20;99.90
16102;DHT22;56411;52.964;10.540;2023-04-24T06:47:08;11.40;99.90
16102;DHT22;56411;52.964;10.540;2023-04-24T06:49:37;11.60;99.90
16102;DHT22;56411;52.964;10.540;2023-04-24T06:52:04;11.70;99.90
16102;DHT22;56411;52.964;10.540;2023-04-24T06:54:32;11.90;99.90
16102;DHT22;56411;52.964;10.540;2023-04-24T06:56:59;12.00;99.90
16102;DHT22;56411;52.964;10.540;2023-04-24T06:59:28;12.10;99.90
16102;DHT22;56411;52.964;10.540;2023-04-24T07:01:55;12.10;99.90
16102;DHT22;56411;52.964;10.540;2023-04-24T07:04:22;12.10;99.90
16102;DHT22;56411;52.964;10.540;2023-04-24T07:06:52;12.20;99.90
16102;DHT22;56411;52.964;10.540;2023-04-24T07:09:21;12.30;99.90
16102;DHT22;56411;52.964;10.540;2023-04-24T07:11:49;12.50;99.90
16102;DHT22;56411;52.964;10.540;2023-04-24T07:14:18;12.60;99.90
16102;DHT22;56411;52.964;10.540;2023-04-24T07:16:46;12.80;99.90
16102;DHT22;56411;52.964;10.540;2023-04-24T07:19:13;12.70;99.90
16102;DHT22;56411;52.964;10.540;2023-04-24T07:21:41;12.60;99.90
16102;DHT22;56411;52.964;10.540;2023-04-24T07:24:09;12.70;99.90
16102;DHT22;56411;52.964;10.540;2023-04-24T07:26:38;12.70;99.90
16102;DHT22;56411;52.964;10.540;2023-04-24T07:29:05;12.80;99.90
16102;DHT22;56411;52.964;10.540;2023-04-24T07:31:32;12.90;99.90
16102;DHT22;56411;52.964;10.540;2023-04-24T07:33:59;13.00;99.90
16102;DHT22;56411;52.964;10.540;2023-04-24T07:36:26;12.90;99.90
16102;DHT22;56411;52.964;10.540;2023-04-24T07:38:54;12.80;99.90
16102;DHT22;56411;52.964;10.540;2023-04-24T07:41:24;13.10;99.90
16102;DHT22;56411;52.964;10.540;2023-04-24T07:43:53;13.30;99.90
16102;DHT22;56411;52.964;10.540;2023-04-24T07:46:20;13.30;99.90
16102;DHT22;56411;52.964;10.540;2023-04-24T07:48:48;13.30;99.90
16102;DHT22;56411;52.964;10.540;2023-04-24T07:51:16;13.40;99.90
16102;DHT22;56411;52.964;10.540;2023-04-24T07:53:43;13.10;99.90
16102;DHT22;56411;52.964;10.540;2023-04-24T07:56:10;12.80;99.90
16102;DHT22;56411;52.964;10.540;2023-04-24T07:58:39;12.80;99.90
16102;DHT22;56411;52.964;10.540;2023-04-24T08:01:06;12.60;99.90
16102;DHT22;56411;52.964;10.540;2023-04-24T08:03:33;12.60;99.90
16102;DHT22;56411;52.964;10.540;2023-04-24T08:06:00;12.50;99.90
16102;DHT22;56411;52.964;10.540;2023-04-24T08:08:27;12.50;99.90
16102;DHT22;56411;52.964;10.540;2023-04-24T08:10:55;12.70;99.90
16102;DHT22;56411;52.964;10.540;2023-04-24T08:13:22;12.60;99.90
16102;DHT22;56411;52.964;10.540;2023-04-24T08:15:50;12.70;99.90
16102;DHT22;56411;52.964;10.540;2023-04-24T08:18:17;12.90;99.90
16102;DHT22;56411;52.964;10.540;2023-04-24T08:20:44;12.60;99.90
16102;DHT22;56411;52.964;10.540;2023-04-24T08:23:12;12.50;99.90
16102;DHT22;56411;52.964;10.540;2023-04-24T08:25:39;12.50;99.90
16102;DHT22;56411;52.964;10.540;2023-04-24T08:28:06;12.30;99.90
16102;DHT22;56411;52.964;10.540;2023-04-24T08:30:35;12.10;99.90
16102;DHT22;56411;52.964;10.540;2023-04-24T08:33:03;11.90;99.90
16102;DHT22;56411;52.964;10.540;2023-04-24T08:35:30;11.90;99.90
16102;DHT22;56411;52.964;10.540;2023-04-24T08:37:58;11.90;99.90
16102;DHT22;56411;52.964;10.540;2023-04-24T08:40:28;11.70;99.90
16102;DHT22;56411;52.964;10.540;2023-04-24T08:42:55;11.40;99.90
16102;DHT22;56411;52.964;10.540;2023-04-24T08:45:23;11.30;99.90
16102;DHT22;56411;52.964;10.540;2023-04-24T08:47:53;11.30;99.90
16102;DHT22;56411;52.964;10.540;2023-04-24T08:50:22;11.30;99.90
16102;DHT22;56411;52.964;10.540;2023-04-24T08:52:50;11.40;99.90
16102;DHT22;56411;52.964;10.540;2023-04-24T08:55:19;11.50;99.90
16102;DHT22;56411;52.964;10.540;2023-04-24T08:57:50;11.80;99.90
16102;DHT22;56411;52.964;10.540;2023-04-24T09:00:19;12.00;99.90
16102;DHT22;56411;52.964;10.540;2023-04-24T09:02:49;11.90;99.90
16102;DHT22;56411;52.964;10.540;2023-04-24T09:05:17;11.80;99.90
16102;DHT22;56411;52.964;10.540;2023-04-24T09:07:51;11.90;99.90
16102;DHT22;56411;52.964;10.540;2023-04-24T09:10:20;12.00;99.90
16102;DHT22;56411;52.964;10.540;2023-04-24T09:12:48;12.00;99.90
16102;DHT22;56411;52.964;10.540;2023-04-24T09:15:16;12.00;99.90
16102;DHT22;56411;52.964;10.540;2023-04-24T09:17:43;12.20;99.90
16102;DHT22;56411;52.964;10.540;2023-04-24T09:20:11;12.40;99.90
16102;DHT22;56411;52.964;10.540;2023-04-24T09:22:38;12.20;99.90
16102;DHT22;56411;52.964;10.540;2023-04-24T09:25:08;12.30;99.90
16102;DHT22;56411;52.964;10.540;2023-04-24T09:27:41;12.50;99.90
16102;DHT22;56411;52.964;10.540;2023-04-24T09:30:10;12.60;99.90
16102;DHT22;56411;52.964;10.540;2023-04-24T09:32:37;12.80;99.90
16102;DHT22;56411;52.964;10.540;2023-04-24T09:35:09;12.90;99.90
16102;DHT22;56411;52.964;10.540;2023-04-24T09:37:37;12.70;99.90
16102;DHT22;56411;52.964;10.540;2023-04-24T09:40:10;12.60;99.90
16102;DHT22;56411;52.964;10.540;2023-04-24T09:42:38;12.50;99.90
16102;DHT22;56411;52.964;10.540;2023-04-24T09:45:09;12.60;99.90
16102;DHT22;56411;52.964;10.540;2023-04-24T09:47:37;13.00;99.90
16102;DHT22;56411;52.964;10.540;2023-04-24T09:50:14;12.90;99.90
16102;DHT22;56411;52.964;10.540;2023-04-24T09:52:46;13.10;99.90
16102;DHT22;56411;52.964;10.540;2023-04-24T09:55:18;12.90;99.90
16102;DHT22;56411;52.964;10.540;2023-04-24T09:57:49;12.80;99.90
16102;DHT22;56411;52.964;10.540;2023-04-24T10:00:22;12.80;99.90
16102;DHT22;56411;52.964;10.540;2023-04-24T10:02:54;13.30;99.90
16102;DHT22;56411;52.964;10.540;2023-04-24T10:05:23;13.50;99.90
16102;DHT22;56411;52.964;10.540;2023-04-24T10:07:51;13.60;99.90
16102;DHT22;56411;52.964;10.540;2023-04-24T10:10:20;13.20;99.90
16102;DHT22;56411;52.964;10.540;2023-04-24T10:12:47;13.20;99.90
16102;DHT22;56411;52.964;10.540;2023-04-24T10:15:15;13.20;99.90
16102;DHT22;56411;52.964;10.540;2023-04-24T10:17:47;13.20;99.90
16102;DHT22;56411;52.964;10.540;2023-04-24T10:20:18;13.50;99.90
16102;DHT22;56411;52.964;10.540;2023-04-24T10:22:50;13.30;99.90
16102;DHT22;56411;52.964;10.540;2023-04-24T10:25:21;13.40;99.90
16102;DHT22;56411;52.964;10.540;2023-04-24T10:27:49;13.40;99.90
16102;DHT22;56411;52.964;10.540;2023-04-24T10:30:17;13.30;99.90
16102;DHT22;56411;52.964;10.540;2023-04-24T10:32:44;13.50;99.90
16102;DHT22;56411;52.964;10.540;2023-04-24T10:35:13;13.90;99.90
16102;DHT22;56411;52.964;10.540;2023-04-24T10:37:44;13.60;99.90
16102;DHT22;56411;52.964;10.540;2023-04-24T10:40:16;13.30;99.90
16102;DHT22;56411;52.964;10.540;2023-04-24T10:42:47;13.50;99.90
16102;DHT22;56411;52.964;10.540;2023-04-24T10:45:17;13.70;99.90
16102;DHT22;56411;52.964;10.540;2023-04-24T10:47:56;14.00;99.90
16102;DHT22;56411;52.964;10.540;2023-04-24T10:50:25;14.40;99.90
16102;DHT22;56411;52.964;10.540;2023-04-24T10:52:52;13.90;99.90
16102;DHT22;56411;52.964;10.540;2023-04-24T10:55:42;14.00;99.90
16102;DHT22;56411;52.964;10.540;2023-04-24T10:58:11;14.00;99.90
16102;DHT22;56411;52.964;10.540;2023-04-24T11:00:40;13.80;99.90
16102;DHT22;56411;52.964;10.540;2023-04-24T11:03:12;13.60;99.90
16102;DHT22;56411;52.964;10.540;2023-04-24T11:05:55;13.50;99.90
16102;DHT22;56411;52.964;10.540;2023-04-24T11:08:25;13.50;99.90
16102;DHT22;56411;52.964;10.540;2023-04-24T11:11:03;13.30;99.90
16102;DHT22;56411;52.964;10.540;2023-04-24T11:14:02;13.50;99.90
16102;DHT22;56411;52.964;10.540;2023-04-24T11:16:31;13.40;99.90
16102;DHT22;56411;52.964;10.540;2023-04-24T11:19:04;13.60;99.90
16102;DHT22;56411;52.964;10.540;2023-04-24T11:21:38;13.90;99.90
16102;DHT22;56411;52.964;10.540;2023-04-24T11:24:29;13.70;99.90
16102;DHT22;56411;52.964;10.540;2023-04-24T11:26:59;13.90;99.90
16102;DHT22;56411;52.964;10.540;2023-04-24T11:29:59;13.90;99.90
16102;DHT22;56411;52.964;10.540;2023-04-24T11:32:28;13.80;99.90
16102;DHT22;56411;52.964;10.540;2023-04-24T11:34:57;13.90;99.90
16102;DHT22;56411;52.964;10.540;2023-04-24T11:37:27;13.90;99.90
16102;DHT22;56411;52.964;10.540;2023-04-24T11:39:55;13.70;99.90
16102;DHT22;56411;52.964;10.540;2023-04-24T11:42:23;13.30;99.90
16102;DHT22;56411;52.964;10.540;2023-04-24T11:44:52;13.20;99.90
16102;DHT22;56411;52.964;10.540;2023-04-24T11:47:29;12.90;99.90
16102;DHT22;56411;52.964;10.540;2023-04-24T11:49:57;12.70;99.90
16102;DHT22;56411;52.964;10.540;2023-04-24T11:52:24;12.70;99.90
16102;DHT22;56411;52.964;10.540;2023-04-24T11:54:52;12.70;99.90
16102;DHT22;56411;52.964;10.540;2023-04-24T11:57:19;12.80;99.90
16102;DHT22;56411;52.964;10.540;2023-04-24T11:59:47;12.80;99.90
16102;DHT22;56411;52.964;10.540;2023-04-24T12:02:21;12.90;99.90
16102;DHT22;56411;52.964;10.540;2023-04-24T12:04:50;12.80;99.90
16102;DHT22;56411;52.964;10.540;2023-04-24T12:07:17;12.70;99.90
16102;DHT22;56411;52.964;10.540;2023-04-24T12:09:45;12.70;99.90
16102;DHT22;56411;52.964;10.540;2023-04-24T12:12:14;12.60;99.90
16102;DHT22;56411;52.964;10.540;2023-04-24T12:14:49;12.50;99.90
16102;DHT22;56411;52.964;10.540;2023-04-24T12:17:16;12.50;99.90
16102;DHT22;56411;52.964;10.540;2023-04-24T12:19:47;12.60;99.90
16102;DHT22;56411;52.964;10.540;2023-04-24T12:22:16;12.60;99.90
16102;DHT22;56411;52.964;10.540;2023-04-24T12:24:59;12.60;99.90
16102;DHT22;56411;52.964;10.540;2023-04-24T12:27:29;12.80;99.90
16102;DHT22;56411;52.964;10.540;2023-04-24T12:29:56;12.80;99.90
16102;DHT22;56411;52.964;10.540;2023-04-24T12:32:24;12.70;99.90
16102;DHT22;56411;52.964;10.540;2023-04-24T12:34:52;12.50;99.90
16102;DHT22;56411;52.964;10.540;2023-04-24T12:37:20;12.40;99.90
16102;DHT22;56411;52.964;10.540;2023-04-24T12:39:59;12.40;99.90
16102;DHT22;56411;52.964;10.540;2023-04-24T12:42:30;12.50;99.90
16102;DHT22;56411;52.964;10.540;2023-04-24T12:45:00;12.30;99.90
16102;DHT22;56411;52.964;10.540;2023-04-24T12:47:28;12.30;99.90
16102;DHT22;56411;52.964;10.540;2023-04-24T12:49:57;12.10;99.90
16102;DHT22;56411;52.964;10.540;2023-04-24T12:52:27;12.10;99.90
16102;DHT22;56411;52.964;10.540;2023-04-24T12:54:56;12.20;99.90
16102;DHT22;56411;52.964;10.540;2023-04-24T12:57:25;12.20;99.90
16102;DHT22;56411;52.964;10.540;2023-04-24T12:59:53;12.20;99.90
16102;DHT22;56411;52.964;10.540;2023-04-24T13:02:21;12.10;99.90
16102;DHT22;56411;52.964;10.540;2023-04-24T13:04:49;12.20;99.90
16102;DHT22;56411;52.964;10.540;2023-04-24T13:07:16;12.30;99.90
16102;DHT22;56411;52.964;10.540;2023-04-24T13:09:45;12.30;99.90
16102;DHT22;56411;52.964;10.540;2023-04-24T13:12:12;12.20;99.90
16102;DHT22;56411;52.964;10.540;2023-04-24T13:14:40;12.10;99.90
16102;DHT22;56411;52.964;10.540;2023-04-24T13:17:07;12.00;99.90
16102;DHT22;56411;52.964;10.540;2023-04-24T13:19:38;12.00;99.90
16102;DHT22;56411;52.964;10.540;2023-04-24T13:22:06;12.20;99.90
16102;DHT22;56411;52.964;10.540;2023-04-24T13:24:33;12.50;99.90
16102;DHT22;56411;52.964;10.540;2023-04-24T13:27:02;13.00;99.90
16102;DHT22;56411;52.964;10.540;2023-04-24T13:29:29;13.50;99.90
16102;DHT22;56411;52.964;10.540;2023-04-24T13:31:56;13.30;99.90
16102;DHT22;56411;52.964;10.540;2023-04-24T13:34:23;13.50;99.90
16102;DHT22;56411;52.964;10.540;2023-04-24T13:36:51;13.80;99.90
16102;DHT22;56411;52.964;10.540;2023-04-24T13:39:18;13.50;99.90
16102;DHT22;56411;52.964;10.540;2023-04-24T13:41:45;13.30;99.90
16102;DHT22;56411;52.964;10.540;2023-04-24T13:44:15;13.00;99.90
16102;DHT22;56411;52.964;10.540;2023-04-24T13:46:42;13.00;99.90
16102;DHT22;56411;52.964;10.540;2023-04-24T13:49:10;13.10;99.90
16102;DHT22;56411;52.964;10.540;2023-04-24T13:51:37;12.80;99.90
16102;DHT22;56411;52.964;10.540;2023-04-24T13:54:05;12.60;99.90
16102;DHT22;56411;52.964;10.540;2023-04-24T13:56:33;12.50;99.90
16102;DHT22;56411;52.964;10.540;2023-04-24T13:59:00;12.30;99.90
16102;DHT22;56411;52.964;10.540;2023-04-24T14:01:29;12.10;99.90
16102;DHT22;56411;52.964;10.540;2023-04-24T14:03:56;12.10;99.90
16102;DHT22;56411;52.964;10.540;2023-04-24T14:06:23;12.10;99.90
16102;DHT22;56411;52.964;10.540;2023-04-24T14:08:50;12.10;99.90
16102;DHT22;56411;52.964;10.540;2023-04-24T14:11:18;12.10;99.90
16102;DHT22;56411;52.964;10.540;2023-04-24T14:13:45;12.10;99.90
16102;DHT22;56411;52.964;10.540;2023-04-24T14:16:12;12.10;99.90
16102;DHT22;56411;52.964;10.540;2023-04-24T14:18:41;12.20;99.90
16102;DHT22;56411;52.964;10.540;2023-04-24T14:21:08;12.20;99.90
16102;DHT22;56411;52.964;10.540;2023-04-24T14:23:35;12.20;99.90
16102;DHT22;56411;52.964;10.540;2023-04-24T14:26:02;12.30;99.90
16102;DHT22;56411;52.964;10.540;2023-04-24T14:28:29;12.10;99.90
16102;DHT22;56411;52.964;10.540;2023-04-24T14:30:56;11.90;99.90
16102;DHT22;56411;52.964;10.540;2023-04-24T14:33:23;11.50;99.90
16102;DHT22;56411;52.964;10.540;2023-04-24T14:35:52;11.30;99.90
16102;DHT22;56411;52.964;10.540;2023-04-24T14:38:19;11.30;99.90
16102;DHT22;56411;52.964;10.540;2023-04-24T14:40:46;11.50;99.90
16102;DHT22;56411;52.964;10.540;2023-04-24T14:43:13;11.70;99.90
16102;DHT22;56411;52.964;10.540;2023-04-24T14:45:40;11.70;99.90
16102;DHT22;56411;52.964;10.540;2023-04-24T14:48:07;11.30;99.90
16102;DHT22;56411;52.964;10.540;2023-04-24T14:50:40;10.90;99.90
16102;DHT22;56411;52.964;10.540;2023-04-24T14:53:10;10.60;99.90
16102;DHT22;56411;52.964;10.540;2023-04-24T14:55:40;10.30;99.90
16102;DHT22;56411;52.964;10.540;2023-04-24T14:58:07;10.20;99.90
16102;DHT22;56411;52.964;10.540;2023-04-24T15:00:34;10.10;99.90
16102;DHT22;56411;52.964;10.540;2023-04-24T15:03:01;10.00;99.90
16102;DHT22;56411;52.964;10.540;2023-04-24T15:05:28;9.60;99.90
16102;DHT22;56411;52.964;10.540;2023-04-24T15:07:55;9.40;99.90
16102;DHT22;56411;52.964;10.540;2023-04-24T15:10:24;9.10;99.90
16102;DHT22;56411;52.964;10.540;2023-04-24T15:12:51;9.10;99.90
16102;DHT22;56411;52.964;10.540;2023-04-24T15:15:18;9.00;99.90
16102;DHT22;56411;52.964;10.540;2023-04-24T15:17:47;8.80;99.90
16102;DHT22;56411;52.964;10.540;2023-04-24T15:20:15;8.80;99.90
16102;DHT22;56411;52.964;10.540;2023-04-24T15:22:42;8.60;99.90
16102;DHT22;56411;52.964;10.540;2023-04-24T15:25:09;8.60;99.90
16102;DHT22;56411;52.964;10.540;2023-04-24T15:27:42;8.50;99.90